Time,TemperatureF,DewpointF,PressureIn,WindDirection,WindDirectionDegrees,WindSpeedMPH,WindSpeedGustMPH,Humidity,HourlyPrecipIn,Conditions,Clouds,dailyrainin,SoftwareType,DateUTC
2013-04-26 00:00:00,47.0,42.0,-100.00,North,-999,-999.0,-999.0,84,-99.99,,,-99.99,,2013-04-25 23:00:00,
2013-04-26 00:41:00,47.0,42.0,-100.00,North,-999,-999.0,-999.0,84,-99.99,,,-99.99,,2013-04-25 23:41:00,
2013-04-26 00:52:00,47.0,42.0,-100.00,North,-999,-999.0,-999.0,84,-99.99,,,-99.99,,2013-04-25 23:52:00,
2013-04-26 01:00:00,47.0,39.0,-100.00,North,-999,-999.0,-999.0,73,-99.99,,,-99.99,,2013-04-26 00:00:00,
2013-04-26 01:41:00,47.0,39.0,-100.00,North,-999,-999.0,-999.0,73,-99.99,,,-99.99,,2013-04-26 00:41:00,
2013-04-26 01:51:00,47.0,39.0,-100.00,North,-999,-999.0,-999.0,73,-99.99,,,-99.99,,2013-04-26 00:51:00,
2013-04-26 02:00:00,47.0,38.0,-100.00,North,-999,-999.0,-999.0,71,-99.99,,,-99.99,,2013-04-26 01:00:00,
2013-04-26 02:41:00,47.0,38.0,-100.00,North,-999,-999.0,-999.0,71,-99.99,,,-99.99,,2013-04-26 01:41:00,
2013-04-26 02:52:00,47.0,38.0,-100.00,North,-999,-999.0,-999.0,71,-99.99,,,-99.99,,2013-04-26 01:52:00,
2013-04-26 03:00:00,46.0,39.0,-100.00,North,-999,-999.0,-999.0,76,-99.99,,,-99.99,,2013-04-26 02:00:00,
2013-04-26 03:41:00,46.0,39.0,-100.00,North,-999,-999.0,-999.0,76,-99.99,,,-99.99,,2013-04-26 02:41:00,
2013-04-26 03:51:00,46.0,39.0,-100.00,North,-999,-999.0,-999.0,76,-99.99,,,-99.99,,2013-04-26 02:51:00,
2013-04-26 04:00:00,44.0,39.0,-100.00,North,-999,-999.0,-999.0,82,-99.99,,,-99.99,,2013-04-26 03:00:00,
2013-04-26 04:43:00,44.0,39.0,-100.00,North,-999,-999.0,-999.0,82,-99.99,,,-99.99,,2013-04-26 03:43:00,
2013-04-26 04:52:00,44.0,39.0,-100.00,North,-999,-999.0,-999.0,82,-99.99,,,-99.99,,2013-04-26 03:52:00,
2013-04-26 05:00:00,41.0,36.0,-100.00,North,-999,-999.0,-999.0,81,-99.99,,,-99.99,,2013-04-26 04:00:00,
2013-04-26 05:42:00,41.0,36.0,-100.00,North,-999,-999.0,-999.0,81,-99.99,,,-99.99,,2013-04-26 04:42:00,
2013-04-26 05:52:00,41.0,36.0,-100.00,North,-999,-999.0,-999.0,81,-99.99,,,-99.99,,2013-04-26 04:52:00,
2013-04-26 06:00:00,39.0,36.0,-100.00,North,-999,-999.0,-999.0,88,-99.99,,,-99.99,,2013-04-26 05:00:00,
2013-04-26 06:41:00,39.0,36.0,-100.00,North,-999,-999.0,-999.0,88,-99.99,,,-99.99,,2013-04-26 05:41:00,
2013-04-26 06:52:00,39.0,36.0,-100.00,North,-999,-999.0,-999.0,88,-99.99,,,-99.99,,2013-04-26 05:52:00,
2013-04-26 07:00:00,39.0,36.0,-100.00,North,-999,-999.0,-999.0,88,-99.99,,,-99.99,,2013-04-26 06:00:00,
2013-04-26 07:41:00,39.0,36.0,-100.00,North,-999,-999.0,-999.0,88,-99.99,,,-99.99,,2013-04-26 06:41:00,
2013-04-26 07:51:00,39.0,36.0,-100.00,North,-999,-999.0,-999.0,88,-99.99,,,-99.99,,2013-04-26 06:51:00,
2013-04-26 08:00:00,40.0,35.0,-100.00,North,-999,-999.0,-999.0,82,-99.99,,,-99.99,,2013-04-26 07:00:00,
2013-04-26 08:42:00,40.0,35.0,-100.00,North,-999,-999.0,-999.0,82,-99.99,,,-99.99,,2013-04-26 07:42:00,
2013-04-26 08:52:00,40.0,35.0,-100.00,North,-999,-999.0,-999.0,82,-99.99,,,-99.99,,2013-04-26 07:52:00,
2013-04-26 09:00:00,43.0,35.0,-100.00,North,-999,-999.0,-999.0,73,-99.99,,,-99.99,,2013-04-26 08:00:00,
2013-04-26 09:42:00,43.0,35.0,-100.00,North,-999,-999.0,-999.0,73,-99.99,,,-99.99,,2013-04-26 08:42:00,
2013-04-26 09:51:00,43.0,35.0,-100.00,North,-999,-999.0,-999.0,73,-99.99,,,-99.99,,2013-04-26 08:51:00,
2013-04-26 10:00:00,46.0,38.0,-100.00,North,-999,-999.0,-999.0,73,-99.99,,,-99.99,,2013-04-26 09:00:00,
2013-04-26 10:42:00,46.0,38.0,-100.00,North,-999,-999.0,-999.0,73,-99.99,,,-99.99,,2013-04-26 09:42:00,
2013-04-26 10:53:00,46.0,38.0,-100.00,North,-999,-999.0,-999.0,73,-99.99,,,-99.99,,2013-04-26 09:53:00,
2013-04-26 11:00:00,45.0,38.0,-100.00,North,-999,-999.0,-999.0,75,-99.99,,,-99.99,,2013-04-26 10:00:00,
2013-04-26 11:41:00,45.0,38.0,-100.00,North,-999,-999.0,-999.0,75,-99.99,,,-99.99,,2013-04-26 10:41:00,
2013-04-26 11:52:00,45.0,38.0,-100.00,North,-999,-999.0,-999.0,75,-99.99,,,-99.99,,2013-04-26 10:52:00,
2013-04-26 12:00:00,47.0,38.0,-100.00,North,-999,-999.0,-999.0,69,-99.99,,,-99.99,,2013-04-26 11:00:00,
2013-04-26 12:41:00,47.0,38.0,-100.00,North,-999,-999.0,-999.0,69,-99.99,,,-99.99,,2013-04-26 11:41:00,
2013-04-26 12:51:00,47.0,38.0,-100.00,North,-999,-999.0,-999.0,69,-99.99,,,-99.99,,2013-04-26 11:51:00,
2013-04-26 13:00:00,48.0,35.0,-100.00,North,-999,-999.0,-999.0,61,-99.99,,,-99.99,,2013-04-26 12:00:00,
2013-04-26 13:41:00,48.0,35.0,-100.00,North,-999,-999.0,-999.0,61,-99.99,,,-99.99,,2013-04-26 12:41:00,
2013-04-26 13:51:00,48.0,35.0,-100.00,North,-999,-999.0,-999.0,61,-99.99,,,-99.99,,2013-04-26 12:51:00,
2013-04-26 14:00:00,48.0,35.0,-100.00,North,-999,-999.0,-999.0,59,-99.99,,,-99.99,,2013-04-26 13:00:00,
2013-04-26 14:41:00,48.0,35.0,-100.00,North,-999,-999.0,-999.0,59,-99.99,,,-99.99,,2013-04-26 13:41:00,
2013-04-26 14:52:00,48.0,35.0,-100.00,North,-999,-999.0,-999.0,59,-99.99,,,-99.99,,2013-04-26 13:52:00,
2013-04-26 15:00:00,45.0,38.0,-100.00,North,-999,-999.0,-999.0,76,-99.99,,,-99.99,,2013-04-26 14:00:00,
2013-04-26 15:31:00,45.0,38.0,-100.00,North,-999,-999.0,-999.0,76,-99.99,,,-99.99,,2013-04-26 14:31:00,
2013-04-26 15:41:00,45.0,38.0,-100.00,North,-999,-999.0,-999.0,76,-99.99,,,-99.99,,2013-04-26 14:41:00,
2013-04-26 15:51:00,45.0,38.0,-100.00,North,-999,-999.0,-999.0,76,-99.99,,,-99.99,,2013-04-26 14:51:00,
2013-04-26 16:00:00,46.0,37.0,-100.00,North,-999,-999.0,-999.0,70,-99.99,,,-99.99,,2013-04-26 15:00:00,
2013-04-26 16:42:00,46.0,37.0,-100.00,North,-999,-999.0,-999.0,70,-99.99,,,-99.99,,2013-04-26 15:42:00,
2013-04-26 16:52:00,46.0,37.0,-100.00,North,-999,-999.0,-999.0,70,-99.99,,,-99.99,,2013-04-26 15:52:00,
2013-04-26 17:00:00,47.0,34.0,-100.00,North,-999,-999.0,-999.0,60,-99.99,,,-99.99,,2013-04-26 16:00:00,
2013-04-26 17:42:00,47.0,34.0,-100.00,North,-999,-999.0,-999.0,60,-99.99,,,-99.99,,2013-04-26 16:42:00,
2013-04-26 17:52:00,47.0,34.0,-100.00,North,-999,-999.0,-999.0,60,-99.99,,,-99.99,,2013-04-26 16:52:00,
2013-04-26 18:00:00,48.0,31.0,-100.00,North,-999,-999.0,-999.0,51,-99.99,,,-99.99,,2013-04-26 17:00:00,
2013-04-26 18:41:00,48.0,31.0,-100.00,North,-999,-999.0,-999.0,51,-99.99,,,-99.99,,2013-04-26 17:41:00,
2013-04-26 18:51:00,48.0,31.0,-100.00,North,-999,-999.0,-999.0,51,-99.99,,,-99.99,,2013-04-26 17:51:00,
2013-04-26 19:00:00,50.0,27.0,-100.00,North,-999,-999.0,-999.0,41,-99.99,,,-99.99,,2013-04-26 18:00:00,
2013-04-26 19:41:00,50.0,27.0,-100.00,North,-999,-999.0,-999.0,41,-99.99,,,-99.99,,2013-04-26 18:41:00,
2013-04-26 19:51:00,50.0,27.0,-100.00,North,-999,-999.0,-999.0,41,-99.99,,,-99.99,,2013-04-26 18:51:00,
2013-04-26 20:00:00,48.0,29.0,-100.00,North,-999,-999.0,-999.0,48,-99.99,,,-99.99,,2013-04-26 19:00:00,
2013-04-26 20:41:00,48.0,29.0,-100.00,North,-999,-999.0,-999.0,48,-99.99,,,-99.99,,2013-04-26 19:41:00,
2013-04-26 20:52:00,48.0,29.0,-100.00,North,-999,-999.0,-999.0,48,-99.99,,,-99.99,,2013-04-26 19:52:00,
2013-04-26 21:00:00,47.0,30.0,-100.00,North,-999,-999.0,-999.0,51,-99.99,,,-99.99,,2013-04-26 20:00:00,
2013-04-26 21:41:00,47.0,30.0,-100.00,North,-999,-999.0,-999.0,51,-99.99,,,-99.99,,2013-04-26 20:41:00,
2013-04-26 21:51:00,47.0,30.0,-100.00,North,-999,-999.0,-999.0,51,-99.99,,,-99.99,,2013-04-26 20:51:00,
2013-04-26 22:00:00,45.0,35.0,-100.00,North,-999,-999.0,-999.0,65,-99.99,,,-99.99,,2013-04-26 21:00:00,
2013-04-26 22:42:00,45.0,35.0,-100.00,North,-999,-999.0,-999.0,65,-99.99,,,-99.99,,2013-04-26 21:42:00,
2013-04-26 22:52:00,45.0,35.0,-100.00,North,-999,-999.0,-999.0,65,-99.99,,,-99.99,,2013-04-26 21:52:00,
2013-04-26 23:00:00,44.0,38.0,-100.00,North,-999,-999.0,-999.0,78,-99.99,,,-99.99,,2013-04-26 22:00:00,
2013-04-26 23:41:00,44.0,38.0,-100.00,North,-999,-999.0,-999.0,78,-99.99,,,-99.99,,2013-04-26 22:41:00,
2013-04-26 23:52:00,44.0,38.0,-100.00,North,-999,-999.0,-999.0,78,-99.99,,,-99.99,,2013-04-26 22:52:00,